createdAt,value
2022-11-03T00:01:13.341Z,7.93
2022-11-03T00:03:41.060Z,7.98
2022-11-03T00:06:09.043Z,7.94
2022-11-03T00:08:39.485Z,7.93
2022-11-03T00:11:10.199Z,7.59
2022-11-03T00:13:38.791Z,7.39
2022-11-03T00:16:09.487Z,7.47
2022-11-03T00:18:40.913Z,7.55
2022-11-03T00:21:09.864Z,7.55
2022-11-03T00:23:39.816Z,7.57
2022-11-03T00:26:09.381Z,7.50
2022-11-03T00:28:37.749Z,7.43
2022-11-03T00:31:08.389Z,7.31
2022-11-03T00:33:36.598Z,7.25
2022-11-03T00:36:04.528Z,7.10
2022-11-03T00:38:32.719Z,6.97
2022-11-03T00:41:02.737Z,6.89
2022-11-03T00:43:31.538Z,6.89
2022-11-03T00:45:59.423Z,6.87
2022-11-03T00:48:34.133Z,6.92
2022-11-03T00:51:06.165Z,6.99
2022-11-03T00:53:34.657Z,6.92
2022-11-03T00:56:04.732Z,6.88
2022-11-03T00:58:33.315Z,7.07
2022-11-03T01:01:05.893Z,7.15
2022-11-03T01:03:37.460Z,7.15
2022-11-03T01:06:24.491Z,7.09
2022-11-03T01:08:52.332Z,7.05
2022-11-03T01:11:39.799Z,7.07
2022-11-03T01:14:10.421Z,7.05
2022-11-03T01:16:39.071Z,7.18
2022-11-03T01:19:07.100Z,7.15
2022-11-03T01:21:34.780Z,7.04
2022-11-03T01:24:04.450Z,6.97
2022-11-03T01:26:33.506Z,7.01
2022-11-03T01:29:01.506Z,7.09
2022-11-03T01:31:29.567Z,7.03
2022-11-03T01:33:57.545Z,6.86
2022-11-03T01:36:25.526Z,6.76
2022-11-03T01:38:54.655Z,6.75
2022-11-03T01:41:24.514Z,6.91
2022-11-03T01:44:14.090Z,7.11
2022-11-03T01:46:43.873Z,7.29
2022-11-03T01:49:15.734Z,7.25
2022-11-03T01:51:44.572Z,7.11
2022-11-03T01:54:14.043Z,7.10
2022-11-03T01:56:43.085Z,7.15
2022-11-03T01:59:12.385Z,7.08
2022-11-03T02:01:41.404Z,7.04
2022-11-03T02:04:11.334Z,7.12
2022-11-03T02:06:39.237Z,7.14
2022-11-03T02:09:08.538Z,7.10
2022-11-03T02:11:54.686Z,7.07
2022-11-03T02:14:24.032Z,7.05
2022-11-03T02:16:54.425Z,6.94
2022-11-03T02:19:27.961Z,6.82
2022-11-03T02:22:01.276Z,6.62
2022-11-03T02:24:32.492Z,6.45
2022-11-03T02:27:01.748Z,6.46
2022-11-03T02:29:29.587Z,6.49
2022-11-03T02:32:02.212Z,6.66
2022-11-03T02:34:33.182Z,6.79
2022-11-03T02:37:04.798Z,6.98
2022-11-03T02:39:35.722Z,7.00
2022-11-03T02:42:06.336Z,7.04
2022-11-03T02:44:35.633Z,7.03
2022-11-03T02:47:05.521Z,7.02
2022-11-03T02:49:33.222Z,6.97
2022-11-03T02:52:01.437Z,6.32
2022-11-03T02:54:32.488Z,5.98
2022-11-03T02:57:02.844Z,5.67
2022-11-03T02:59:33.125Z,5.48
2022-11-03T03:02:05.042Z,5.29
2022-11-03T03:04:35.989Z,5.20
2022-11-03T03:07:06.747Z,5.12
2022-11-03T03:09:38.448Z,5.32
2022-11-03T03:12:07.897Z,5.83
2022-11-03T03:14:39.209Z,6.13
2022-11-03T03:17:10.227Z,6.34
2022-11-03T03:19:45.113Z,6.40
2022-11-03T03:22:17.296Z,6.33
2022-11-03T03:24:49.286Z,6.21
2022-11-03T03:27:19.749Z,6.24
2022-11-03T03:29:51.750Z,6.25
2022-11-03T03:32:21.948Z,6.18
2022-11-03T03:34:51.223Z,6.12
2022-11-03T03:37:21.356Z,6.16
2022-11-03T03:39:51.646Z,6.15
2022-11-03T03:42:21.579Z,6.16
2022-11-03T03:44:53.589Z,6.27
2022-11-03T03:47:24.237Z,6.25
2022-11-03T03:49:52.174Z,6.15
2022-11-03T03:52:20.429Z,6.13
2022-11-03T03:54:50.444Z,6.28
2022-11-03T03:57:19.606Z,6.34
2022-11-03T03:59:47.546Z,6.35
2022-11-03T04:02:17.339Z,6.34
2022-11-03T04:04:45.427Z,6.36
2022-11-03T04:07:30.676Z,6.36
2022-11-03T04:09:58.856Z,6.41
2022-11-03T04:12:44.218Z,6.54
2022-11-03T04:15:31.338Z,6.48
2022-11-03T04:18:20.188Z,6.51
2022-11-03T04:21:05.588Z,6.50
2022-11-03T04:23:33.754Z,6.46
2022-11-03T04:26:02.224Z,6.35
2022-11-03T04:28:30.628Z,6.30
2022-11-03T04:30:59.717Z,6.28
2022-11-03T04:33:30.270Z,6.32
2022-11-03T04:35:59.346Z,6.33
2022-11-03T04:38:27.696Z,6.19
2022-11-03T04:40:56.460Z,6.19
2022-11-03T04:43:26.001Z,6.36
2022-11-03T04:45:54.408Z,6.45
2022-11-03T04:48:23.497Z,6.44
2022-11-03T04:50:54.637Z,6.28
2022-11-03T04:53:23.675Z,6.15
2022-11-03T04:55:54.214Z,6.11
2022-11-03T04:58:23.087Z,6.03
2022-11-03T05:00:52.675Z,6.12
2022-11-03T05:03:23.977Z,6.12
2022-11-03T05:05:53.523Z,6.13
2022-11-03T05:08:22.591Z,6.16
2022-11-03T05:10:50.773Z,6.24
2022-11-03T05:13:22.293Z,6.24
2022-11-03T05:15:51.118Z,6.27
2022-11-03T05:18:28.675Z,6.26
2022-11-03T05:20:59.582Z,6.31
2022-11-03T05:23:29.008Z,6.21
2022-11-03T05:25:58.532Z,6.07
2022-11-03T05:28:28.056Z,5.96
2022-11-03T05:30:56.215Z,6.02
2022-11-03T05:33:28.152Z,5.99
2022-11-03T05:35:56.702Z,5.98
2022-11-03T05:38:26.919Z,5.97
2022-11-03T05:40:55.416Z,6.00
2022-11-03T05:43:23.462Z,6.07
2022-11-03T05:45:52.261Z,6.13
2022-11-03T05:48:24.007Z,6.17
2022-11-03T05:50:51.982Z,6.13
2022-11-03T05:53:26.906Z,6.11
2022-11-03T05:55:56.781Z,5.97
2022-11-03T05:58:27.011Z,5.84
2022-11-03T06:00:57.647Z,5.83
2022-11-03T06:03:26.618Z,5.92
2022-11-03T06:05:55.161Z,6.01
2022-11-03T06:08:25.695Z,6.04
2022-11-03T06:10:54.988Z,6.15
2022-11-03T06:13:26.931Z,6.16
2022-11-03T06:15:56.989Z,6.27
2022-11-03T06:18:27.275Z,6.33
2022-11-03T06:20:57.965Z,6.31
2022-11-03T06:23:26.360Z,6.44
2022-11-03T06:25:55.466Z,6.42
2022-11-03T06:28:27.920Z,6.38
2022-11-03T06:30:56.019Z,6.37
2022-11-03T06:33:27.000Z,6.26
2022-11-03T06:35:55.581Z,6.42
2022-11-03T06:38:24.825Z,6.63
2022-11-03T06:40:53.200Z,6.72
2022-11-03T06:43:22.689Z,6.92
2022-11-03T06:45:53.817Z,7.03
2022-11-03T06:48:24.431Z,7.21
2022-11-03T06:50:52.811Z,7.36
2022-11-03T06:53:22.765Z,7.27
2022-11-03T06:55:51.566Z,7.01
2022-11-03T06:58:23.550Z,7.33
2022-11-03T07:00:52.961Z,7.74
2022-11-03T07:03:24.283Z,8.05
2022-11-03T07:05:54.678Z,8.29
2022-11-03T07:08:25.613Z,8.58
2022-11-03T07:11:01.139Z,8.85
2022-11-03T07:13:28.993Z,8.47
2022-11-03T07:15:58.237Z,8.11
2022-11-03T07:18:28.251Z,8.53
2022-11-03T07:20:57.082Z,8.96
2022-11-03T07:23:27.693Z,9.16
2022-11-03T07:25:58.017Z,9.16
2022-11-03T07:28:30.179Z,8.71
2022-11-03T07:31:00.376Z,8.64
2022-11-03T07:33:31.201Z,8.68
2022-11-03T07:36:16.887Z,8.68
2022-11-03T07:38:46.191Z,9.07
2022-11-03T07:41:18.548Z,9.57
2022-11-03T07:43:50.458Z,9.88
2022-11-03T07:46:21.334Z,10.02
2022-11-03T07:48:49.902Z,10.18
2022-11-03T07:51:21.399Z,10.53
2022-11-03T07:53:51.301Z,10.91
2022-11-03T07:56:20.886Z,11.53
2022-11-03T07:58:51.037Z,12.02
2022-11-03T08:01:28.294Z,12.24
2022-11-03T08:03:58.350Z,12.57
2022-11-03T08:06:26.031Z,13.00
2022-11-03T08:08:53.812Z,13.44
2022-11-03T08:11:26.072Z,13.70
2022-11-03T08:13:57.139Z,13.86
2022-11-03T08:16:25.012Z,13.87
2022-11-03T08:18:54.402Z,13.52
2022-11-03T08:21:22.993Z,13.54
2022-11-03T08:23:50.907Z,13.41
2022-11-03T08:26:19.182Z,13.51
2022-11-03T08:28:47.230Z,13.45
2022-11-03T08:31:15.207Z,13.24
2022-11-03T08:33:43.368Z,13.48
2022-11-03T08:36:13.150Z,13.96
2022-11-03T08:38:41.474Z,14.40
2022-11-03T08:41:09.316Z,14.50
2022-11-03T08:43:37.504Z,14.31
2022-11-03T08:46:13.914Z,14.58
2022-11-03T08:48:45.501Z,14.95
2022-11-03T08:51:15.498Z,15.51
2022-11-03T08:53:43.788Z,16.17
2022-11-03T08:56:13.176Z,16.78
2022-11-03T08:58:42.806Z,17.31
2022-11-03T09:01:11.136Z,17.84
2022-11-03T09:03:39.168Z,18.43
2022-11-03T09:06:07.763Z,18.71
2022-11-03T09:11:24.875Z,18.31
2022-11-03T09:13:53.001Z,17.33
2022-11-03T09:16:22.049Z,15.78
2022-11-03T09:18:50.039Z,15.12
2022-11-03T09:21:18.631Z,14.76
2022-11-03T09:23:47.736Z,13.91
2022-11-03T09:26:15.993Z,13.98
2022-11-03T09:28:44.087Z,14.18
2022-11-03T09:31:12.060Z,14.04
2022-11-03T09:33:40.072Z,14.24
2022-11-03T09:36:08.677Z,15.16
2022-11-03T09:38:36.615Z,14.14
2022-11-03T09:41:18.687Z,13.89
2022-11-03T09:43:54.809Z,14.22
2022-11-03T09:46:22.506Z,14.64
2022-11-03T09:48:52.803Z,15.20
2022-11-03T09:51:24.199Z,15.73
2022-11-03T09:53:52.674Z,15.86
2022-11-03T09:56:23.575Z,16.27
2022-11-03T09:58:54.582Z,16.94
2022-11-03T10:01:23.192Z,17.23
2022-11-03T10:03:51.168Z,17.40
2022-11-03T10:06:21.533Z,17.82
2022-11-03T10:08:50.394Z,18.69
2022-11-03T10:11:18.763Z,19.59
2022-11-03T10:13:50.596Z,20.33
2022-11-03T10:16:20.370Z,20.47
2022-11-03T10:18:49.575Z,20.36
2022-11-03T10:21:20.328Z,20.46
2022-11-03T10:23:50.317Z,21.27
2022-11-03T10:26:19.708Z,22.58
2022-11-03T10:29:02.289Z,21.87
2022-11-03T10:31:34.779Z,20.27
2022-11-03T10:34:03.054Z,19.62
2022-11-03T10:36:32.212Z,19.94
2022-11-03T10:39:01.878Z,19.65
2022-11-03T10:41:30.880Z,19.61
2022-11-03T10:44:04.650Z,19.88
2022-11-03T10:49:21.861Z,22.17
2022-11-03T10:51:51.035Z,23.36
2022-11-03T10:54:20.434Z,23.64
2022-11-03T10:56:49.636Z,23.05
2022-11-03T10:59:20.486Z,22.00
2022-11-03T11:01:48.913Z,21.06
2022-11-03T11:04:18.137Z,20.61
2022-11-03T11:06:47.194Z,20.41
2022-11-03T11:09:16.952Z,20.31
2022-11-03T11:12:00.052Z,20.17
2022-11-03T11:14:39.464Z,20.05
2022-11-03T11:17:07.825Z,19.93
2022-11-03T11:19:50.818Z,19.73
2022-11-03T11:22:23.079Z,19.37
2022-11-03T11:24:58.865Z,19.52
2022-11-03T11:27:46.406Z,19.69
2022-11-03T11:30:29.401Z,19.28
2022-11-03T11:33:02.225Z,19.55
2022-11-03T11:35:49.130Z,19.53
2022-11-03T11:38:35.773Z,19.57
2022-11-03T11:41:03.748Z,19.67
2022-11-03T11:43:33.664Z,19.45
2022-11-03T11:46:20.317Z,19.37
2022-11-03T11:48:53.345Z,19.02
2022-11-03T11:51:21.369Z,18.43
2022-11-03T11:53:58.739Z,18.21
2022-11-03T11:56:43.337Z,17.64
2022-11-03T11:59:23.003Z,17.49
2022-11-03T12:01:53.443Z,17.48
2022-11-03T12:04:25.527Z,17.60
2022-11-03T12:06:53.861Z,17.47
2022-11-03T12:09:22.837Z,17.40
2022-11-03T12:11:55.418Z,16.57
2022-11-03T12:14:24.752Z,16.61
2022-11-03T12:16:53.127Z,16.66
2022-11-03T12:19:39.348Z,17.40
2022-11-03T12:22:09.017Z,18.10
2022-11-03T12:24:38.626Z,18.61
2022-11-03T12:27:19.609Z,18.43
2022-11-03T12:29:48.148Z,18.36
2022-11-03T12:32:32.378Z,18.55
2022-11-03T12:35:04.115Z,18.71
2022-11-03T12:37:32.026Z,19.00
2022-11-03T12:40:00.300Z,19.34
2022-11-03T12:42:28.653Z,19.50
2022-11-03T12:44:56.677Z,19.42
2022-11-03T12:47:25.589Z,19.67
2022-11-03T12:49:53.576Z,20.07
2022-11-03T12:52:23.313Z,21.29
2022-11-03T12:54:51.348Z,21.79
2022-11-03T12:57:19.549Z,21.22
2022-11-03T12:59:47.616Z,20.56
2022-11-03T13:02:15.671Z,19.74
2022-11-03T13:04:43.953Z,19.07
2022-11-03T13:07:11.591Z,18.93
2022-11-03T13:09:40.834Z,18.90
2022-11-03T13:12:30.247Z,19.15
2022-11-03T13:14:58.276Z,19.30
2022-11-03T13:17:31.796Z,19.30
2022-11-03T13:20:05.431Z,19.02
2022-11-03T13:22:33.487Z,18.70
2022-11-03T13:25:03.002Z,18.02
2022-11-03T13:27:30.765Z,18.06
2022-11-03T13:29:58.591Z,17.77
2022-11-03T13:32:26.660Z,17.85
2022-11-03T13:34:55.468Z,17.92
2022-11-03T13:37:23.308Z,17.72
2022-11-03T13:39:51.332Z,17.72
2022-11-03T13:42:20.559Z,17.77
2022-11-03T13:44:48.155Z,17.59
2022-11-03T13:47:15.870Z,17.17
2022-11-03T13:50:12.598Z,16.66
2022-11-03T13:52:32.018Z,16.60
2022-11-03T14:00:37.474Z,16.66
2022-11-03T14:05:54.236Z,16.56
2022-11-03T14:08:23.328Z,16.34
2022-11-03T14:10:51.427Z,16.21
2022-11-03T14:13:21.830Z,16.26
2022-11-03T14:15:50.701Z,16.46
2022-11-03T14:18:20.011Z,16.62
2022-11-03T14:20:49.178Z,16.74
2022-11-03T14:23:17.006Z,16.83
2022-11-03T14:25:55.730Z,16.87
2022-11-03T14:28:35.860Z,16.82
2022-11-03T14:31:05.802Z,16.82
2022-11-03T14:33:33.681Z,16.61
2022-11-03T14:36:01.690Z,16.39
2022-11-03T14:38:29.703Z,16.32
2022-11-03T14:41:11.531Z,16.09
2022-11-03T14:43:57.955Z,15.40
2022-11-03T14:46:28.970Z,15.35
2022-11-03T14:48:56.978Z,14.83
2022-11-03T14:51:24.733Z,14.83
2022-11-03T14:53:52.841Z,15.05
2022-11-03T14:56:21.785Z,15.01
2022-11-03T14:58:51.903Z,15.30
2022-11-03T15:01:20.913Z,15.47
2022-11-03T15:03:53.831Z,15.38
2022-11-03T15:06:21.639Z,14.46
2022-11-03T15:08:55.038Z,14.16
2022-11-03T15:11:23.782Z,14.12
2022-11-03T15:13:52.793Z,14.32
2022-11-03T15:16:23.017Z,14.40
2022-11-03T15:18:56.283Z,14.02
2022-11-03T15:21:23.900Z,13.66
2022-11-03T15:26:39.592Z,13.81
2022-11-03T15:29:10.406Z,13.46
2022-11-03T15:31:39.385Z,13.00
2022-11-03T15:34:09.019Z,12.85
2022-11-03T15:36:38.211Z,12.85
2022-11-03T15:39:05.977Z,12.63
2022-11-03T15:41:33.990Z,12.81
2022-11-03T15:44:03.212Z,12.95
2022-11-03T15:46:33.614Z,13.04
2022-11-03T15:49:01.552Z,13.00
2022-11-03T15:51:30.799Z,13.44
2022-11-03T15:53:59.447Z,13.72
2022-11-03T15:56:28.095Z,14.09
2022-11-03T15:58:56.269Z,14.40
2022-11-03T16:01:38.151Z,14.45
2022-11-03T16:04:05.937Z,14.14
2022-11-03T16:07:01.815Z,14.15
2022-11-03T16:09:23.128Z,13.67
2022-11-03T16:11:50.954Z,13.64
2022-11-03T16:14:19.416Z,13.32
2022-11-03T16:16:47.178Z,13.24
2022-11-03T16:19:14.930Z,13.17
2022-11-03T16:21:44.013Z,13.53
2022-11-03T16:24:13.521Z,13.75
2022-11-03T16:26:41.290Z,14.03
2022-11-03T16:29:09.378Z,14.25
2022-11-03T16:31:37.196Z,14.39
2022-11-03T16:34:05.616Z,14.46
2022-11-03T16:36:33.342Z,14.54
2022-11-03T16:39:02.506Z,14.53
2022-11-03T16:41:30.194Z,14.56
2022-11-03T16:43:58.011Z,14.54
2022-11-03T16:46:25.955Z,14.27
2022-11-03T16:48:55.529Z,14.05
2022-11-03T16:51:24.477Z,14.03
2022-11-03T16:53:55.110Z,14.06
2022-11-03T16:56:24.427Z,14.12
2022-11-03T16:58:52.200Z,14.14
2022-11-03T17:01:21.229Z,14.25
2022-11-03T17:03:48.945Z,14.05
2022-11-03T17:06:16.684Z,13.90
2022-11-03T17:08:52.733Z,13.48
2022-11-03T17:11:36.242Z,13.48
2022-11-03T17:14:08.080Z,13.47
2022-11-03T17:16:37.175Z,13.39
2022-11-03T17:19:05.152Z,13.46
2022-11-03T17:21:34.760Z,13.50
2022-11-03T17:24:03.828Z,13.41
2022-11-03T17:26:40.371Z,13.39
2022-11-03T17:29:16.611Z,13.37
2022-11-03T17:31:44.818Z,13.49
2022-11-03T17:34:12.976Z,13.62
2022-11-03T17:36:41.344Z,13.47
2022-11-03T17:39:09.797Z,13.19
2022-11-03T17:41:37.894Z,12.88
2022-11-03T17:44:09.663Z,12.78
2022-11-03T17:46:38.763Z,12.85
2022-11-03T17:49:07.927Z,13.00
2022-11-03T17:51:39.051Z,13.05
2022-11-03T17:54:08.429Z,13.33
2022-11-03T17:56:36.531Z,13.44
2022-11-03T17:59:04.686Z,13.47
2022-11-03T18:01:32.574Z,13.22
2022-11-03T18:04:02.793Z,12.77
2022-11-03T18:06:30.776Z,12.79
2022-11-03T18:08:59.307Z,12.64
2022-11-03T18:11:46.456Z,12.65
2022-11-03T18:14:18.234Z,12.58
2022-11-03T18:16:46.299Z,12.59
2022-11-03T18:19:16.270Z,12.50
2022-11-03T18:21:44.043Z,12.58
2022-11-03T18:24:13.011Z,12.65
2022-11-03T18:26:41.210Z,12.69
2022-11-03T18:29:09.828Z,12.69
2022-11-03T18:31:38.950Z,12.89
2022-11-03T18:34:07.635Z,13.03
2022-11-03T18:36:38.262Z,13.13
2022-11-03T18:39:06.478Z,13.14
2022-11-03T18:41:39.207Z,12.99
2022-11-03T18:44:18.295Z,12.82
2022-11-03T18:46:46.124Z,12.70
2022-11-03T18:49:14.201Z,12.72
2022-11-03T18:51:45.971Z,12.79
2022-11-03T18:54:15.569Z,12.92
2022-11-03T18:56:43.490Z,12.99
2022-11-03T18:59:17.341Z,13.06
2022-11-03T19:01:47.607Z,12.91
2022-11-03T19:04:17.619Z,12.61
2022-11-03T19:06:47.940Z,12.64
2022-11-03T19:09:17.139Z,12.71
2022-11-03T19:11:45.649Z,12.82
2022-11-03T19:14:15.163Z,12.81
2022-11-03T19:16:55.726Z,11.90
2022-11-03T19:19:31.454Z,11.70
2022-11-03T19:22:00.635Z,12.20
2022-11-03T19:24:28.215Z,12.59
2022-11-03T19:26:58.705Z,12.81
2022-11-03T19:29:28.803Z,12.97
2022-11-03T19:31:56.860Z,12.96
2022-11-03T19:34:27.621Z,12.34
2022-11-03T19:36:57.984Z,12.24
2022-11-03T19:39:29.333Z,12.34
2022-11-03T19:42:14.926Z,12.51
2022-11-03T19:44:42.558Z,12.64
2022-11-03T19:47:11.816Z,12.79
2022-11-03T19:49:39.542Z,12.98
2022-11-03T19:52:09.293Z,12.95
2022-11-03T19:54:41.357Z,13.03
2022-11-03T19:57:11.489Z,13.10
2022-11-03T19:59:39.154Z,13.03
2022-11-03T20:02:08.193Z,12.94
2022-11-03T20:04:37.039Z,12.88
2022-11-03T20:07:05.591Z,12.86
2022-11-03T20:09:34.553Z,12.77
2022-11-03T20:12:05.512Z,12.82
2022-11-03T20:14:33.475Z,12.66
2022-11-03T20:17:09.953Z,12.50
2022-11-03T20:19:37.699Z,12.54
2022-11-03T20:22:06.246Z,12.42
2022-11-03T20:24:34.477Z,12.26
2022-11-03T20:27:02.276Z,12.18
2022-11-03T20:29:34.763Z,12.07
2022-11-03T20:32:03.878Z,12.00
2022-11-03T20:34:31.671Z,12.06
2022-11-03T20:37:04.666Z,12.16
2022-11-03T20:39:33.488Z,12.32
2022-11-03T20:42:01.217Z,12.22
2022-11-03T20:44:28.831Z,12.16
2022-11-03T20:46:57.967Z,12.24
2022-11-03T20:49:26.779Z,12.27
2022-11-03T20:51:54.974Z,12.29
2022-11-03T20:54:23.042Z,12.21
2022-11-03T20:56:51.007Z,12.18
2022-11-03T20:59:21.365Z,12.21
2022-11-03T21:01:50.180Z,12.17
2022-11-03T21:04:21.032Z,12.14
2022-11-03T21:06:48.943Z,12.14
2022-11-03T21:09:17.837Z,12.19
2022-11-03T21:11:46.344Z,12.17
2022-11-03T21:14:22.455Z,12.15
2022-11-03T21:17:08.249Z,12.17
2022-11-03T21:19:54.803Z,12.14
2022-11-03T21:22:52.091Z,12.19
2022-11-03T21:25:13.411Z,12.17
2022-11-03T21:27:42.146Z,12.23
2022-11-03T21:30:12.471Z,12.23
2022-11-03T21:32:40.217Z,12.23
2022-11-03T21:35:11.937Z,12.40
2022-11-03T21:37:39.939Z,12.42
2022-11-03T21:40:08.191Z,12.35
2022-11-03T21:42:53.528Z,12.44
2022-11-03T21:45:21.649Z,12.45
2022-11-03T21:48:03.509Z,12.40
2022-11-03T21:50:32.788Z,12.38
2022-11-03T21:53:03.117Z,12.29
2022-11-03T21:55:30.688Z,12.36
2022-11-03T21:57:58.411Z,12.56
2022-11-03T22:00:26.027Z,12.63
2022-11-03T22:02:54.008Z,12.61
2022-11-03T22:05:21.643Z,12.74
2022-11-03T22:07:50.675Z,12.69
2022-11-03T22:10:18.796Z,12.75
2022-11-03T22:12:46.595Z,12.72
2022-11-03T22:15:33.021Z,12.58
2022-11-03T22:18:01.249Z,12.53
2022-11-03T22:20:46.557Z,12.49
2022-11-03T22:23:34.233Z,12.35
2022-11-03T22:26:19.975Z,12.34
2022-11-03T22:29:07.696Z,12.35
2022-11-03T22:31:43.930Z,12.30
2022-11-03T22:34:29.233Z,12.28
2022-11-03T22:36:59.569Z,12.44
2022-11-03T22:39:46.384Z,12.28
2022-11-03T22:42:31.890Z,12.17
2022-11-03T22:45:17.612Z,12.22
2022-11-03T22:47:45.335Z,12.38
2022-11-03T22:50:12.877Z,12.23
2022-11-03T22:52:40.707Z,12.16
2022-11-03T22:55:09.240Z,12.10
2022-11-03T22:57:37.030Z,12.13
2022-11-03T23:00:07.183Z,12.12
2022-11-03T23:02:35.118Z,12.10
2022-11-03T23:27:11.352Z,11.91
2022-11-03T23:29:39.312Z,11.91
2022-11-03T23:32:07.116Z,11.83
2022-11-03T23:34:36.015Z,11.90
2022-11-03T23:37:04.101Z,11.92
2022-11-03T23:39:32.104Z,11.89
2022-11-03T23:41:59.871Z,11.88
2022-11-03T23:44:49.274Z,11.90
2022-11-03T23:47:34.595Z,11.90
2022-11-03T23:50:02.544Z,11.94
2022-11-03T23:52:30.379Z,12.07
2022-11-03T23:54:57.941Z,12.08
2022-11-03T23:57:42.924Z,12.15
